Time;durP1;ratioP1;P1;durP2;ratioP2;P2;SDS_P1;SDS_P2;PMS_P1;PMS_P2;Temp;Humidity;BMP_temperature;BMP_pressure;BME280_temperature;BME280_humidity;BME280_pressure;Samples;Min_cycle;Max_cycle;Signal;HPM_P1;HPM_P2
2021/03/06 00:02:02;;;;;;;;;;;13.70;55.30;;;;;;5011382;28;75165;-69
2021/03/06 00:04:28;;;;;;;;;;;13.70;56.10;;;;;;5010121;28;77424;-78
2021/03/06 00:06:53;;;;;;;;;;;13.60;56.50;;;;;;5010358;27;75328;-78
2021/03/06 00:09:19;;;;;;;;;;;13.60;57.10;;;;;;5009039;28;75492;-71
2021/03/06 00:11:44;;;;;;;;;;;13.50;56.80;;;;;;5010523;27;75832;-64
2021/03/06 00:14:10;;;;;;;;;;;13.50;57.10;;;;;;5008770;28;77294;-67
2021/03/06 00:16:36;;;;;;;;;;;13.50;57.30;;;;;;5008804;28;74550;-64
2021/03/06 00:19:01;;;;;;;;;;;13.50;57.70;;;;;;5010914;28;75308;-71
2021/03/06 00:21:27;;;;;;;;;;;13.40;57.90;;;;;;5010722;28;75714;-80
2021/03/06 00:23:52;;;;;;;;;;;13.40;58.30;;;;;;5009068;27;75421;-71
2021/03/06 00:26:18;;;;;;;;;;;13.40;58.20;;;;;;5009236;28;78492;-64
2021/03/06 00:28:44;;;;;;;;;;;13.40;58.20;;;;;;5009971;27;75513;-72
2021/03/06 00:31:09;;;;;;;;;;;13.40;58.40;;;;;;5010370;28;75248;-72
2021/03/06 00:33:35;;;;;;;;;;;13.40;58.70;;;;;;5010433;27;74493;-66
2021/03/06 00:36:00;;;;;;;;;;;13.40;59.20;;;;;;5008563;28;76267;-81
2021/03/06 00:38:26;;;;;;;;;;;13.40;59.50;;;;;;5010627;28;74488;-73
2021/03/06 00:40:52;;;;;;;;;;;13.30;59.60;;;;;;5008571;28;75250;-69
2021/03/06 00:43:17;;;;;;;;;;;13.40;59.90;;;;;;5010173;28;75458;-66
2021/03/06 00:45:43;;;;;;;;;;;13.30;60.00;;;;;;5008622;28;75164;-67
2021/03/06 00:48:09;;;;;;;;;;;13.20;59.70;;;;;;5008538;28;74728;-71
2021/03/06 00:50:35;;;;;;;;;;;13.10;59.60;;;;;;5008879;27;75920;-68
2021/03/06 00:53:01;;;;;;;;;;;13.10;59.90;;;;;;5010271;28;75732;-66
2021/03/06 00:55:27;;;;;;;;;;;13.00;59.90;;;;;;5008609;28;75711;-65
2021/03/06 00:57:53;;;;;;;;;;;13.00;60.30;;;;;;5008180;28;75165;-69
2021/03/06 01:00:18;;;;;;;;;;;12.90;60.10;;;;;;5009851;28;74719;-67
2021/03/06 01:02:44;;;;;;;;;;;12.90;59.80;;;;;;5008063;27;77303;-68
2021/03/06 01:05:10;;;;;;;;;;;12.90;59.80;;;;;;5009971;28;74647;-73
2021/03/06 01:07:36;;;;;;;;;;;12.90;59.70;;;;;;5008299;28;75467;-74
2021/03/06 01:10:07;;;;;;;;;;;12.80;59.80;;;;;;5008474;28;77717;-68
2021/03/06 01:12:32;;;;;;;;;;;12.80;59.80;;;;;;5008219;28;77396;-68
2021/03/06 01:14:58;;;;;;;;;;;12.70;59.90;;;;;;5009794;27;74709;-70
2021/03/06 01:17:24;;;;;;;;;;;12.60;60.10;;;;;;5009334;28;75354;-64
2021/03/06 01:19:49;;;;;;;;;;;12.60;60.40;;;;;;5009049;27;75546;-65
2021/03/06 01:22:15;;;;;;;;;;;12.60;60.50;;;;;;5008632;28;75354;-66
2021/03/06 01:24:40;;;;;;;;;;;12.60;60.70;;;;;;5008362;28;77682;-73
2021/03/06 01:27:06;;;;;;;;;;;12.50;60.70;;;;;;5008334;28;75668;-64
2021/03/06 01:29:31;;;;;;;;;;;12.50;60.60;;;;;;5008474;28;77005;-72
2021/03/06 01:31:57;;;;;;;;;;;12.40;60.70;;;;;;5009905;27;75756;-78
2021/03/06 01:34:23;;;;;;;;;;;12.40;60.60;;;;;;5009197;28;75458;-80
2021/03/06 01:36:48;;;;;;;;;;;12.40;60.90;;;;;;5009945;27;74671;-77
2021/03/06 01:39:15;;;;;;;;;;;12.30;60.90;;;;;;5015306;27;74527;-75
2021/03/06 01:41:40;;;;;;;;;;;12.30;61.00;;;;;;5018775;28;74592;-73
2021/03/06 01:44:06;;;;;;;;;;;12.20;61.00;;;;;;5017585;28;77251;-74
2021/03/06 01:46:31;;;;;;;;;;;12.20;60.90;;;;;;5010799;27;75699;-90
2021/03/06 01:48:57;;;;;;;;;;;12.10;60.90;;;;;;5008882;28;77624;-80
2021/03/06 01:51:23;;;;;;;;;;;12.00;61.00;;;;;;5008711;28;75383;-81
2021/03/06 01:53:48;;;;;;;;;;;12.00;61.00;;;;;;5009848;27;75716;-88
2021/03/06 01:56:14;;;;;;;;;;;12.00;61.30;;;;;;5008166;28;75687;-80
2021/03/06 01:58:39;;;;;;;;;;;11.90;61.30;;;;;;5007790;28;76931;-84
2021/03/06 02:01:09;;;;;;;;;;;11.90;61.40;;;;;;5009191;27;74741;-81
2021/03/06 02:03:35;;;;;;;;;;;11.90;61.50;;;;;;5007653;28;77248;-81
2021/03/06 02:06:01;;;;;;;;;;;11.90;61.40;;;;;;5007682;28;76813;-79
2021/03/06 02:08:26;;;;;;;;;;;11.90;61.60;;;;;;5009570;28;75038;-81
2021/03/06 02:10:52;;;;;;;;;;;11.90;61.70;;;;;;5007947;28;74560;-85
2021/03/06 02:13:36;;;;;;;;;;;11.90;61.80;;;;;;5009968;27;75465;-73
2021/03/06 02:16:04;;;;;;;;;;;11.90;61.80;;;;;;5010241;28;74420;-65
2021/03/06 02:18:45;;;;;;;;;;;11.90;61.80;;;;;;5007959;28;78273;-73
2021/03/06 02:21:29;;;;;;;;;;;11.90;61.70;;;;;;5007714;28;75836;-84
2021/03/06 02:24:13;;;;;;;;;;;11.90;61.70;;;;;;5006961;28;76280;-79
2021/03/06 02:27:11;;;;;;;;;;;11.90;61.90;;;;;;5007343;28;77705;-81
2021/03/06 02:29:42;;;;;;;;;;;11.90;61.80;;;;;;4975911;28;77207;-80
2021/03/06 02:32:28;;;;;;;;;;;11.90;61.70;;;;;;5010631;28;77418;-79
2021/03/06 02:35:13;;;;;;;;;;;11.90;61.70;;;;;;5011841;27;75712;-83
2021/03/06 02:37:41;;;;;;;;;;;12.00;61.60;;;;;;5010635;27;74777;-85
2021/03/06 02:40:07;;;;;;;;;;;12.00;61.40;;;;;;5012223;27;74534;-79
2021/03/06 02:42:34;;;;;;;;;;;12.00;61.40;;;;;;5010327;28;77174;-69
2021/03/06 02:45:00;;;;;;;;;;;12.00;61.50;;;;;;5011746;28;75283;-69
2021/03/06 02:47:25;;;;;;;;;;;11.90;61.50;;;;;;5012409;28;75171;-67
2021/03/06 02:49:52;;;;;;;;;;;11.90;61.60;;;;;;5011085;28;74547;-70
2021/03/06 02:52:18;;;;;;;;;;;11.90;61.80;;;;;;5010621;27;76696;-77
2021/03/06 02:54:44;;;;;;;;;;;11.90;61.90;;;;;;5010101;27;75298;-71
2021/03/06 02:57:12;;;;;;;;;;;11.80;62.00;;;;;;5010308;27;75229;-66
2021/03/06 02:59:46;;;;;;;;;;;11.80;62.10;;;;;;5010257;28;74712;-73
2021/03/06 03:02:12;;;;;;;;;;;11.80;62.30;;;;;;5010299;28;77500;-84
2021/03/06 03:04:47;;;;;;;;;;;11.80;62.20;;;;;;5010326;28;77629;-71
2021/03/06 03:07:27;;;;;;;;;;;11.90;62.10;;;;;;5009794;27;75853;-77
2021/03/06 03:09:55;;;;;;;;;;;11.90;62.10;;;;;;5011319;27;74534;-83
2021/03/06 03:12:23;;;;;;;;;;;11.90;62.00;;;;;;5011517;28;75382;-83
2021/03/06 03:14:51;;;;;;;;;;;11.90;62.20;;;;;;5009792;28;75634;-67
2021/03/06 03:17:22;;;;;;;;;;;11.90;62.10;;;;;;5009794;28;77577;-66
2021/03/06 03:19:55;;;;;;;;;;;11.90;62.00;;;;;;5009922;28;77858;-70
2021/03/06 03:22:22;;;;;;;;;;;11.90;62.20;;;;;;5012374;27;75226;-69
2021/03/06 03:24:49;;;;;;;;;;;12.00;62.10;;;;;;5012535;27;75818;-83
2021/03/06 03:27:16;;;;;;;;;;;12.00;62.20;;;;;;5010628;28;77057;-85
2021/03/06 03:29:42;;;;;;;;;;;12.00;62.20;;;;;;5011611;28;75313;-87
2021/03/06 03:32:09;;;;;;;;;;;12.10;62.10;;;;;;5012091;27;75238;-82
2021/03/06 03:34:35;;;;;;;;;;;12.10;62.00;;;;;;5009740;28;75731;-84
2021/03/06 03:37:01;;;;;;;;;;;12.10;61.80;;;;;;5011487;28;74951;-81
2021/03/06 03:39:28;;;;;;;;;;;12.20;61.70;;;;;;5011031;27;75023;-75
2021/03/06 03:41:54;;;;;;;;;;;12.20;61.60;;;;;;5008409;28;76141;-70
2021/03/06 03:44:20;;;;;;;;;;;12.20;61.60;;;;;;5009482;28;77309;-72
2021/03/06 03:46:46;;;;;;;;;;;12.20;61.60;;;;;;5010565;28;74543;-73
2021/03/06 03:49:17;;;;;;;;;;;12.20;61.40;;;;;;5009305;28;75548;-78
2021/03/06 03:51:43;;;;;;;;;;;12.30;61.50;;;;;;5009367;28;77123;-78
2021/03/06 03:54:09;;;;;;;;;;;12.30;61.50;;;;;;5009673;28;77536;-70
2021/03/06 03:56:34;;;;;;;;;;;12.30;61.30;;;;;;5011498;27;75365;-68
2021/03/06 03:59:00;;;;;;;;;;;12.20;61.40;;;;;;5011186;28;75174;-86
2021/03/06 04:01:26;;;;;;;;;;;12.30;61.40;;;;;;5010538;27;75713;-77
2021/03/06 04:03:51;;;;;;;;;;;12.30;61.40;;;;;;5009447;28;74528;-70
2021/03/06 04:06:17;;;;;;;;;;;12.30;61.40;;;;;;5010932;27;75139;-73
2021/03/06 04:08:42;;;;;;;;;;;12.30;61.20;;;;;;5011103;28;74580;-80
2021/03/06 04:11:08;;;;;;;;;;;12.30;61.20;;;;;;5010984;28;75351;-78
2021/03/06 04:13:33;;;;;;;;;;;12.30;61.20;;;;;;5008692;28;75060;-72
2021/03/06 04:15:59;;;;;;;;;;;12.30;61.30;;;;;;5010613;28;75175;-81
2021/03/06 04:18:25;;;;;;;;;;;12.30;61.20;;;;;;5008709;27;77502;-78
2021/03/06 04:20:50;;;;;;;;;;;12.30;61.20;;;;;;5010489;28;75114;-75
2021/03/06 04:23:16;;;;;;;;;;;12.30;61.20;;;;;;5009015;27;74659;-82
2021/03/06 04:25:42;;;;;;;;;;;12.20;61.10;;;;;;5008913;27;75129;-69
2021/03/06 04:28:07;;;;;;;;;;;12.30;61.00;;;;;;5008641;28;76166;-73
2021/03/06 04:30:33;;;;;;;;;;;12.20;61.00;;;;;;5010775;27;75191;-79
2021/03/06 04:32:59;;;;;;;;;;;12.20;61.10;;;;;;5009573;28;76820;-72
2021/03/06 04:35:24;;;;;;;;;;;12.20;61.10;;;;;;5010849;27;74612;-69
2021/03/06 04:37:50;;;;;;;;;;;12.20;61.10;;;;;;5010991;28;74564;-65
2021/03/06 04:40:16;;;;;;;;;;;12.20;61.20;;;;;;5008760;28;77512;-64
2021/03/06 04:42:41;;;;;;;;;;;12.20;61.30;;;;;;5009834;27;74673;-66
2021/03/06 04:45:08;;;;;;;;;;;12.20;61.30;;;;;;5009053;28;77427;-69
2021/03/06 04:47:33;;;;;;;;;;;12.20;61.30;;;;;;5008716;28;78350;-64
2021/03/06 04:49:59;;;;;;;;;;;12.20;61.30;;;;;;5010197;28;75103;-84
2021/03/06 04:52:25;;;;;;;;;;;12.20;61.30;;;;;;5009770;27;75095;-68
2021/03/06 04:54:50;;;;;;;;;;;12.20;61.40;;;;;;5010048;28;75092;-78
2021/03/06 04:57:16;;;;;;;;;;;12.20;61.40;;;;;;5009745;28;75437;-68
2021/03/06 04:59:42;;;;;;;;;;;12.20;61.40;;;;;;5009763;27;75098;-65
2021/03/06 05:02:08;;;;;;;;;;;12.20;61.40;;;;;;5008155;28;75587;-72
2021/03/06 05:04:34;;;;;;;;;;;12.20;61.40;;;;;;5008212;28;77712;-70
2021/03/06 05:07:00;;;;;;;;;;;12.20;61.50;;;;;;5008310;28;76241;-66
2021/03/06 05:09:25;;;;;;;;;;;12.20;61.60;;;;;;5008294;28;78122;-75
2021/03/06 05:11:51;;;;;;;;;;;12.20;61.60;;;;;;5010180;28;75788;-76
2021/03/06 05:14:16;;;;;;;;;;;12.20;61.40;;;;;;5009849;28;75221;-70
2021/03/06 05:16:42;;;;;;;;;;;12.20;61.50;;;;;;5008127;28;75203;-64
2021/03/06 05:19:08;;;;;;;;;;;12.10;61.50;;;;;;5008452;28;76459;-68
2021/03/06 05:21:35;;;;;;;;;;;12.20;61.50;;;;;;5008055;28;77294;-73
2021/03/06 05:24:00;;;;;;;;;;;12.10;61.70;;;;;;5009973;28;74465;-67
2021/03/06 05:26:26;;;;;;;;;;;12.10;61.70;;;;;;5008168;27;75254;-66
2021/03/06 05:28:52;;;;;;;;;;;12.10;61.60;;;;;;5009366;28;75432;-70
2021/03/06 05:31:17;;;;;;;;;;;12.10;61.60;;;;;;5008189;28;76159;-69
2021/03/06 05:33:43;;;;;;;;;;;12.20;61.70;;;;;;5008279;28;74547;-71
2021/03/06 05:36:08;;;;;;;;;;;12.10;61.60;;;;;;5009541;28;75379;-78
2021/03/06 05:38:34;;;;;;;;;;;12.10;61.60;;;;;;5009388;28;75155;-71
2021/03/06 05:41:00;;;;;;;;;;;12.20;61.70;;;;;;5009561;28;75111;-64
2021/03/06 05:43:25;;;;;;;;;;;12.10;61.70;;;;;;5009205;28;75170;-64
2021/03/06 05:45:51;;;;;;;;;;;12.10;61.70;;;;;;5007442;28;77670;-65
2021/03/06 05:48:17;;;;;;;;;;;12.10;61.80;;;;;;5009235;28;75150;-67
2021/03/06 05:50:43;;;;;;;;;;;12.10;61.90;;;;;;5007432;28;77674;-69
2021/03/06 05:53:15;;;;;;;;;;;12.10;61.80;;;;;;5007666;28;74466;-64
2021/03/06 05:55:48;;;;;;;;;;;12.00;61.90;;;;;;5007601;28;76296;-72
2021/03/06 05:58:15;;;;;;;;;;;12.10;61.90;;;;;;5008977;28;75594;-68
2021/03/06 06:00:41;;;;;;;;;;;12.00;61.80;;;;;;5008002;27;74553;-68
2021/03/06 06:03:08;;;;;;;;;;;12.00;61.90;;;;;;5007615;28;75271;-64
2021/03/06 06:05:33;;;;;;;;;;;12.10;61.90;;;;;;5010024;28;75006;-83
2021/03/06 06:08:01;;;;;;;;;;;12.00;62.00;;;;;;5012126;27;74974;-83
2021/03/06 06:10:27;;;;;;;;;;;12.00;61.90;;;;;;5010718;28;74791;-72
2021/03/06 06:12:53;;;;;;;;;;;12.00;61.90;;;;;;5010478;28;75801;-77
2021/03/06 06:15:20;;;;;;;;;;;12.00;61.80;;;;;;5012039;28;75182;-75
2021/03/06 06:17:45;;;;;;;;;;;12.00;61.70;;;;;;5010470;28;77866;-70
2021/03/06 06:20:13;;;;;;;;;;;12.00;61.70;;;;;;5011674;27;75401;-69
2021/03/06 06:22:38;;;;;;;;;;;12.10;61.60;;;;;;5012041;28;75184;-72
2021/03/06 06:25:04;;;;;;;;;;;12.00;61.60;;;;;;5011835;27;74994;-74
2021/03/06 06:27:33;;;;;;;;;;;12.00;61.60;;;;;;5010439;28;75351;-79
2021/03/06 06:30:00;;;;;;;;;;;12.00;61.70;;;;;;5010122;27;77436;-77
2021/03/06 06:32:43;;;;;;;;;;;12.00;61.70;;;;;;5010652;28;76283;-76
2021/03/06 06:35:10;;;;;;;;;;;11.90;61.70;;;;;;5012335;28;74580;-81
2021/03/06 06:37:36;;;;;;;;;;;11.90;61.70;;;;;;5013249;27;74627;-84
2021/03/06 06:40:15;;;;;;;;;;;11.90;61.70;;;;;;5016544;27;75431;-63
2021/03/06 06:42:41;;;;;;;;;;;11.90;61.70;;;;;;5012747;28;75100;-63
2021/03/06 06:45:08;;;;;;;;;;;11.90;61.80;;;;;;5013294;27;75522;-75
2021/03/06 06:47:34;;;;;;;;;;;11.80;62.00;;;;;;5010270;27;76847;-68
2021/03/06 06:50:00;;;;;;;;;;;11.80;61.90;;;;;;5012506;28;75725;-68
2021/03/06 06:52:34;;;;;;;;;;;11.70;61.90;;;;;;5010649;28;77254;-71
2021/03/06 06:55:01;;;;;;;;;;;11.70;62.10;;;;;;5010522;28;74492;-71
2021/03/06 06:57:27;;;;;;;;;;;11.60;62.30;;;;;;5010489;28;75586;-64
2021/03/06 06:59:59;;;;;;;;;;;11.60;62.50;;;;;;5011799;27;75305;-67
2021/03/06 07:02:26;;;;;;;;;;;11.60;62.60;;;;;;5010249;28;77094;-80
2021/03/06 07:04:55;;;;;;;;;;;11.50;62.60;;;;;;5011806;27;75655;-74
2021/03/06 07:07:22;;;;;;;;;;;11.50;62.80;;;;;;5010487;28;77243;-73
2021/03/06 07:09:59;;;;;;;;;;;11.60;62.90;;;;;;5011115;28;75239;-66
2021/03/06 07:12:26;;;;;;;;;;;11.60;62.70;;;;;;5011649;28;74362;-68
2021/03/06 07:14:52;;;;;;;;;;;11.50;62.60;;;;;;5009593;28;77093;-67
2021/03/06 07:17:18;;;;;;;;;;;11.50;62.60;;;;;;5008465;28;74523;-76
2021/03/06 07:19:44;;;;;;;;;;;11.60;62.70;;;;;;5009722;28;77874;-71
2021/03/06 07:22:10;;;;;;;;;;;11.60;62.70;;;;;;5011216;27;75134;-68
2021/03/06 07:24:36;;;;;;;;;;;11.50;62.70;;;;;;5011753;28;75453;-73
2021/03/06 07:27:01;;;;;;;;;;;11.60;62.80;;;;;;5009891;28;76057;-71
2021/03/06 07:29:28;;;;;;;;;;;11.60;62.80;;;;;;5010847;27;75542;-66
2021/03/06 07:31:54;;;;;;;;;;;11.70;62.90;;;;;;5009889;28;77865;-67
2021/03/06 07:34:21;;;;;;;;;;;11.70;62.90;;;;;;5009351;28;78033;-66
2021/03/06 07:36:47;;;;;;;;;;;11.70;62.70;;;;;;5007723;28;75419;-67
2021/03/06 07:39:14;;;;;;;;;;;11.80;62.60;;;;;;4989571;27;77409;-68
2021/03/06 07:41:41;;;;;;;;;;;11.80;62.30;;;;;;4991430;28;75601;-70
2021/03/06 07:44:07;;;;;;;;;;;11.90;62.20;;;;;;4989454;28;75584;-62
2021/03/06 07:46:37;;;;;;;;;;;11.90;62.20;;;;;;4991090;28;75205;-61
2021/03/06 07:49:07;;;;;;;;;;;11.90;62.10;;;;;;4989432;28;75612;-62
2021/03/06 07:51:33;;;;;;;;;;;12.00;61.80;;;;;;4989797;27;77658;-61
2021/03/06 07:53:59;;;;;;;;;;;12.00;61.80;;;;;;4991074;28;74385;-60
2021/03/06 07:56:25;;;;;;;;;;;12.00;61.70;;;;;;4989705;27;76410;-61
2021/03/06 07:58:51;;;;;;;;;;;12.00;61.80;;;;;;4990797;28;75092;-62
2021/03/06 08:01:27;;;;;;;;;;;12.00;61.80;;;;;;4989010;27;76418;-62
2021/03/06 08:03:53;;;;;;;;;;;12.10;61.80;;;;;;4989022;27;76342;-64
2021/03/06 08:06:20;;;;;;;;;;;12.20;61.70;;;;;;4989330;28;78152;-61
2021/03/06 08:08:45;;;;;;;;;;;12.20;61.30;;;;;;4990781;28;76028;-63
2021/03/06 08:11:21;;;;;;;;;;;12.30;61.10;;;;;;4989802;27;75980;-60
2021/03/06 08:13:52;;;;;;;;;;;12.30;61.10;;;;;;4988997;27;76128;-61
2021/03/06 08:16:24;;;;;;;;;;;12.30;61.00;;;;;;4989248;28;75227;-61
2021/03/06 08:18:49;;;;;;;;;;;12.40;60.90;;;;;;4990792;28;75582;-62
2021/03/06 08:21:33;;;;;;;;;;;12.40;60.90;;;;;;4989258;28;78861;-68
2021/03/06 08:24:08;;;;;;;;;;;12.40;60.90;;;;;;4991050;28;74982;-61
2021/03/06 08:26:33;;;;;;;;;;;12.60;60.90;;;;;;4990487;27;75298;-62
2021/03/06 08:29:19;;;;;;;;;;;12.90;60.40;;;;;;4988179;28;78491;-60
2021/03/06 08:31:44;;;;;;;;;;;13.20;60.00;;;;;;4990152;27;75685;-59
2021/03/06 08:34:34;;;;;;;;;;;13.50;59.20;;;;;;5001664;28;76272;-59
2021/03/06 08:37:15;;;;;;;;;;;13.80;58.60;;;;;;5004611;28;75491;-59
2021/03/06 08:39:41;;;;;;;;;;;14.20;57.10;;;;;;5008973;28;76313;-60
2021/03/06 08:42:07;;;;;;;;;;;14.50;56.70;;;;;;5010465;27;75255;-61
2021/03/06 08:44:33;;;;;;;;;;;14.70;55.30;;;;;;5010366;28;75227;-61
2021/03/06 08:46:59;;;;;;;;;;;14.90;55.00;;;;;;5008903;28;76174;-62
2021/03/06 08:49:24;;;;;;;;;;;15.00;54.20;;;;;;5008917;28;76258;-59
2021/03/06 08:51:51;;;;;;;;;;;15.00;54.00;;;;;;5010685;28;75738;-60
2021/03/06 08:54:17;;;;;;;;;;;15.00;53.90;;;;;;5008771;28;78642;-61
2021/03/06 08:56:42;;;;;;;;;;;15.10;54.00;;;;;;5008780;27;76422;-61
2021/03/06 08:59:08;;;;;;;;;;;15.30;53.80;;;;;;5009897;27;75142;-60
2021/03/06 09:01:34;;;;;;;;;;;15.40;52.90;;;;;;5009772;27;75037;-59
2021/03/06 09:04:00;;;;;;;;;;;15.60;52.20;;;;;;5009133;27;74996;-62
2021/03/06 09:06:37;;;;;;;;;;;15.70;51.80;;;;;;5009115;27;95305;-59
2021/03/06 09:09:05;;;;;;;;;;;15.70;51.70;;;;;;5010026;28;75789;-59
2021/03/06 09:11:35;;;;;;;;;;;15.70;51.60;;;;;;5008570;27;77035;-61
2021/03/06 09:14:00;;;;;;;;;;;15.80;51.50;;;;;;5011528;27;76361;-70
2021/03/06 09:16:26;;;;;;;;;;;15.90;51.30;;;;;;5028601;27;77395;-67
2021/03/06 09:18:51;;;;;;;;;;;16.00;50.90;;;;;;5092241;27;76746;-68
2021/03/06 09:21:23;;;;;;;;;;;16.00;50.60;;;;;;5081365;27;78223;-65
2021/03/06 09:23:51;;;;;;;;;;;16.10;50.10;;;;;;5112819;27;75200;-65
2021/03/06 09:26:18;;;;;;;;;;;16.20;50.00;;;;;;5113094;27;74525;-67
2021/03/06 09:28:45;;;;;;;;;;;16.20;49.80;;;;;;5113942;27;75048;-64
2021/03/06 09:31:10;;;;;;;;;;;16.20;50.10;;;;;;5114310;27;75239;-66
2021/03/06 09:33:37;;;;;;;;;;;16.20;49.70;;;;;;5114215;27;75203;-64
2021/03/06 09:36:07;;;;;;;;;;;16.40;49.60;;;;;;5112653;27;74439;-67
2021/03/06 09:38:33;;;;;;;;;;;16.40;49.30;;;;;;5113887;27;75362;-67
2021/03/06 09:40:59;;;;;;;;;;;16.80;48.60;;;;;;5113585;27;75693;-69
2021/03/06 09:43:26;;;;;;;;;;;17.10;47.90;;;;;;5114977;27;74436;-67
2021/03/06 09:45:52;;;;;;;;;;;17.20;47.00;;;;;;5114184;27;75718;-67
2021/03/06 09:48:18;;;;;;;;;;;17.20;47.80;;;;;;5112479;27;75658;-69
2021/03/06 09:50:45;;;;;;;;;;;17.40;47.80;;;;;;5114346;27;75192;-68
2021/03/06 09:53:13;;;;;;;;;;;17.40;47.40;;;;;;5112361;27;77503;-68
2021/03/06 09:55:39;;;;;;;;;;;17.50;47.30;;;;;;5112132;27;77426;-65
2021/03/06 09:58:15;;;;;;;;;;;17.70;47.00;;;;;;5113909;27;75136;-66
2021/03/06 10:00:40;;;;;;;;;;;17.90;46.30;;;;;;5114046;27;74488;-66
2021/03/06 10:03:06;;;;;;;;;;;18.20;45.90;;;;;;5112012;27;76952;-66
2021/03/06 10:05:32;;;;;;;;;;;18.30;45.50;;;;;;5112334;27;75899;-65
2021/03/06 10:07:57;;;;;;;;;;;18.40;44.40;;;;;;5113888;27;75331;-67
2021/03/06 10:10:24;;;;;;;;;;;18.40;45.30;;;;;;5112193;27;75443;-66
2021/03/06 10:12:50;;;;;;;;;;;18.40;45.10;;;;;;5114144;27;75389;-66
2021/03/06 10:15:16;;;;;;;;;;;18.50;44.80;;;;;;5111747;27;77197;-66
2021/03/06 10:17:42;;;;;;;;;;;18.70;44.80;;;;;;5114107;27;74517;-67
2021/03/06 10:20:08;;;;;;;;;;;18.80;44.10;;;;;;5112125;27;75587;-67
2021/03/06 10:22:48;;;;;;;;;;;18.80;43.60;;;;;;5112024;27;76684;-68
2021/03/06 10:25:22;;;;;;;;;;;18.90;43.70;;;;;;5111757;27;77802;-67
2021/03/06 10:27:48;;;;;;;;;;;19.00;43.90;;;;;;5112012;27;76434;-68
2021/03/06 10:30:20;;;;;;;;;;;19.30;43.70;;;;;;5111727;27;75110;-68
2021/03/06 10:32:56;;;;;;;;;;;19.50;43.00;;;;;;5111610;27;77858;-68
2021/03/06 10:35:31;;;;;;;;;;;19.80;42.80;;;;;;5111907;27;75978;-68
2021/03/06 10:37:56;;;;;;;;;;;20.10;42.20;;;;;;5113431;27;75195;-68
2021/03/06 10:40:40;;;;;;;;;;;20.30;40.10;;;;;;5111424;27;77140;-68
2021/03/06 10:43:06;;;;;;;;;;;20.40;40.90;;;;;;5111704;27;78014;-66
2021/03/06 10:45:32;;;;;;;;;;;20.70;40.50;;;;;;5113329;27;75352;-67
2021/03/06 10:47:59;;;;;;;;;;;21.00;40.50;;;;;;5113294;27;75422;-67
2021/03/06 10:50:25;;;;;;;;;;;21.50;40.00;;;;;;5114208;27;74480;-67
2021/03/06 10:52:51;;;;;;;;;;;21.90;39.20;;;;;;5117066;27;75140;-68
2021/03/06 10:55:17;;;;;;;;;;;22.20;38.40;;;;;;5114826;27;77547;-67
2021/03/06 10:57:49;;;;;;;;;;;22.40;38.20;;;;;;5114967;27;77464;-68
2021/03/06 11:00:19;;;;;;;;;;;22.20;37.60;;;;;;5115028;27;76973;-69
2021/03/06 11:02:53;;;;;;;;;;;21.70;37.70;;;;;;5116152;27;75272;-69
2021/03/06 11:05:19;;;;;;;;;;;21.30;38.50;;;;;;5114601;27;77267;-70
2021/03/06 11:07:45;;;;;;;;;;;21.20;39.30;;;;;;5114121;27;76163;-68
2021/03/06 11:10:11;;;;;;;;;;;21.60;38.40;;;;;;5116299;27;75095;-68
2021/03/06 11:12:37;;;;;;;;;;;21.90;39.20;;;;;;5114552;27;78059;-67
2021/03/06 11:15:13;;;;;;;;;;;22.80;37.00;;;;;;5116020;27;75189;-66
2021/03/06 11:17:40;;;;;;;;;;;23.70;35.80;;;;;;5116343;27;74597;-66
2021/03/06 11:20:07;;;;;;;;;;;23.70;35.10;;;;;;5116809;27;74430;-66
2021/03/06 11:22:32;;;;;;;;;;;23.20;35.70;;;;;;5114716;27;74439;-66
2021/03/06 11:24:58;;;;;;;;;;;23.80;35.60;;;;;;5114287;27;78015;-67
2021/03/06 11:27:24;;;;;;;;;;;25.20;34.00;;;;;;5114288;27;76656;-67
2021/03/06 11:29:50;;;;;;;;;;;26.30;32.40;;;;;;5114165;27;78130;-70
2021/03/06 11:32:16;;;;;;;;;;;27.30;30.90;;;;;;5114352;27;77485;-67
2021/03/06 11:34:41;;;;;;;;;;;27.40;30.60;;;;;;5115932;27;75099;-68
2021/03/06 11:37:07;;;;;;;;;;;27.00;30.90;;;;;;5115581;27;75665;-68
2021/03/06 11:39:32;;;;;;;;;;;25.90;31.80;;;;;;5116407;27;74525;-67
2021/03/06 11:41:58;;;;;;;;;;;24.90;33.10;;;;;;5115919;27;74434;-66
2021/03/06 11:44:23;;;;;;;;;;;24.90;33.30;;;;;;5114311;27;78164;-66
2021/03/06 11:46:49;;;;;;;;;;;25.50;32.30;;;;;;5113913;27;77808;-69
2021/03/06 11:49:15;;;;;;;;;;;26.40;31.80;;;;;;5115721;27;75027;-68
2021/03/06 11:51:40;;;;;;;;;;;26.90;31.10;;;;;;5115982;27;75225;-69
2021/03/06 11:54:06;;;;;;;;;;;26.90;31.20;;;;;;5114621;27;77844;-68
2021/03/06 11:56:31;;;;;;;;;;;26.90;30.90;;;;;;5115951;27;75168;-66
2021/03/06 11:58:57;;;;;;;;;;;25.80;31.90;;;;;;5113786;27;78448;-67
2021/03/06 12:01:23;;;;;;;;;;;25.00;32.50;;;;;;5113943;27;78472;-68
2021/03/06 12:03:48;;;;;;;;;;;26.40;31.70;;;;;;5114808;27;74598;-67
2021/03/06 12:06:14;;;;;;;;;;;28.90;29.40;;;;;;5114012;27;77349;-67
2021/03/06 12:08:39;;;;;;;;;;;31.10;26.30;;;;;;5113896;27;78169;-67
2021/03/06 12:11:05;;;;;;;;;;;32.40;24.90;;;;;;5115220;27;75663;-68
2021/03/06 12:13:31;;;;;;;;;;;33.00;24.60;;;;;;5113723;27;77986;-68
2021/03/06 12:15:57;;;;;;;;;;;34.00;23.70;;;;;;5113457;27;78683;-68
2021/03/06 12:18:23;;;;;;;;;;;33.80;23.70;;;;;;5115469;27;75498;-68
2021/03/06 12:20:48;;;;;;;;;;;32.70;24.30;;;;;;5113686;27;76789;-69
2021/03/06 12:23:14;;;;;;;;;;;30.80;25.70;;;;;;5115591;27;74400;-68
2021/03/06 12:25:40;;;;;;;;;;;28.90;27.50;;;;;;5113929;27;76270;-68
2021/03/06 12:28:06;;;;;;;;;;;27.30;29.20;;;;;;5112822;27;77029;-70
2021/03/06 12:30:31;;;;;;;;;;;26.00;30.60;;;;;;5115169;27;74990;-69
2021/03/06 12:32:57;;;;;;;;;;;25.10;32.00;;;;;;5113216;27;77491;-67
2021/03/06 12:35:22;;;;;;;;;;;25.40;32.00;;;;;;5113741;27;78480;-67
2021/03/06 12:37:48;;;;;;;;;;;25.40;31.40;;;;;;5113682;27;77933;-68
2021/03/06 12:40:15;;;;;;;;;;;24.90;32.40;;;;;;5115378;27;75868;-69
2021/03/06 12:42:41;;;;;;;;;;;25.60;31.50;;;;;;5113430;27;77338;-67
2021/03/06 12:45:07;;;;;;;;;;;26.80;29.60;;;;;;5113060;27;77641;-67
2021/03/06 12:47:33;;;;;;;;;;;27.00;29.40;;;;;;5115119;27;74563;-68
2021/03/06 12:49:59;;;;;;;;;;;27.90;28.70;;;;;;5115067;27;74485;-66
2021/03/06 12:52:25;;;;;;;;;;;28.50;28.20;;;;;;5113167;27;77219;-69
2021/03/06 12:54:50;;;;;;;;;;;28.90;27.70;;;;;;5115218;27;74572;-69
2021/03/06 12:57:16;;;;;;;;;;;28.90;28.20;;;;;;5112865;27;76455;-69
2021/03/06 12:59:41;;;;;;;;;;;28.70;28.20;;;;;;5114556;27;75199;-68
2021/03/06 13:02:07;;;;;;;;;;;29.20;27.40;;;;;;5114209;27;75147;-70
2021/03/06 13:04:33;;;;;;;;;;;29.40;26.90;;;;;;5114923;27;74653;-70
2021/03/06 13:06:58;;;;;;;;;;;30.00;26.00;;;;;;5113217;27;75091;-70
2021/03/06 13:09:24;;;;;;;;;;;31.20;24.80;;;;;;5112958;27;78425;-69
2021/03/06 13:11:50;;;;;;;;;;;32.00;24.40;;;;;;5112986;27;77261;-69
2021/03/06 13:14:15;;;;;;;;;;;32.00;24.20;;;;;;5112550;27;77476;-69
2021/03/06 13:16:41;;;;;;;;;;;32.00;24.70;;;;;;5112555;27;77144;-70
2021/03/06 13:19:07;;;;;;;;;;;32.40;23.80;;;;;;5114226;27;75398;-70
2021/03/06 13:21:33;;;;;;;;;;;33.00;23.90;;;;;;5114529;27;75893;-70
2021/03/06 13:23:59;;;;;;;;;;;34.30;22.40;;;;;;5114222;27;75089;-70
2021/03/06 13:26:24;;;;;;;;;;;35.70;21.50;;;;;;5114433;27;75211;-70
2021/03/06 13:28:50;;;;;;;;;;;36.40;20.00;;;;;;5114375;27;75601;-70
2021/03/06 13:31:16;;;;;;;;;;;36.70;20.80;;;;;;5112235;27;78709;-70
2021/03/06 13:33:42;;;;;;;;;;;36.60;20.60;;;;;;5112645;27;75188;-71
2021/03/06 13:36:07;;;;;;;;;;;36.20;20.90;;;;;;5112512;27;76397;-71
2021/03/06 13:38:33;;;;;;;;;;;35.50;21.40;;;;;;5112756;27;76534;-70
2021/03/06 13:40:58;;;;;;;;;;;35.40;21.90;;;;;;5114300;27;75588;-68
2021/03/06 13:43:24;;;;;;;;;;;35.60;21.30;;;;;;5112229;27;76979;-70
2021/03/06 13:45:50;;;;;;;;;;;36.10;21.00;;;;;;5114095;27;75373;-69
2021/03/06 13:48:15;;;;;;;;;;;35.40;21.00;;;;;;5111967;27;77571;-69
2021/03/06 13:50:41;;;;;;;;;;;34.30;22.40;;;;;;5113660;27;75040;-69
2021/03/06 13:53:07;;;;;;;;;;;32.80;23.70;;;;;;5114012;27;75085;-68
2021/03/06 13:55:33;;;;;;;;;;;31.00;24.30;;;;;;5113960;27;75182;-68
2021/03/06 13:57:59;;;;;;;;;;;29.20;25.80;;;;;;5112196;27;75818;-69
2021/03/06 14:00:25;;;;;;;;;;;27.80;27.20;;;;;;5113494;27;75122;-69
2021/03/06 14:02:50;;;;;;;;;;;26.80;28.30;;;;;;5111640;27;74777;-68
2021/03/06 14:05:17;;;;;;;;;;;25.90;29.00;;;;;;5111785;27;76313;-68
2021/03/06 14:07:42;;;;;;;;;;;25.20;29.40;;;;;;5113541;27;75086;-69
2021/03/06 14:10:08;;;;;;;;;;;24.60;30.70;;;;;;5111523;27;75921;-70
2021/03/06 14:12:34;;;;;;;;;;;24.30;30.60;;;;;;5113640;27;75103;-71
2021/03/06 14:14:59;;;;;;;;;;;23.90;30.90;;;;;;5113807;27;74587;-69
2021/03/06 14:17:25;;;;;;;;;;;23.70;31.50;;;;;;5111867;27;76757;-68